Time;durP1;ratioP1;P1;durP2;ratioP2;P2;SDS_P1;SDS_P2;PMS_P1;PMS_P2;Temp;Humidity;BMP_temperature;BMP_pressure;BME280_temperature;BME280_humidity;BME280_pressure;Samples;Min_cycle;Max_cycle;Signal;HPM_P1;HPM_P2
2022/04/07 00:02:01;;;;;;;31.05;3.78;;;;;;;9.10;100.00;99029.06;5012011;28;20478;-68
2022/04/07 00:04:27;;;;;;;21.80;3.05;;;;;;;9.11;100.00;99032.56;5015152;28;20034;-67
2022/04/07 00:06:52;;;;;;;28.48;4.28;;;;;;;9.22;100.00;99024.59;5014801;28;20084;-68
2022/04/07 00:09:18;;;;;;;22.02;3.10;;;;;;;9.24;100.00;99020.22;5013402;28;20080;-68
2022/04/07 00:11:43;;;;;;;18.10;3.65;;;;;;;9.27;100.00;99028.06;5015197;28;20176;-67
2022/04/07 00:14:08;;;;;;;20.42;2.30;;;;;;;9.38;100.00;98993.88;5013400;28;20030;-68
2022/04/07 00:16:33;;;;;;;19.05;3.15;;;;;;;9.48;100.00;99010.41;5015392;28;20393;-66
2022/04/07 00:18:59;;;;;;;18.58;3.60;;;;;;;9.49;100.00;99009.53;5013198;28;20065;-67
2022/04/07 00:21:25;;;;;;;13.52;2.50;;;;;;;9.55;100.00;99002.47;5015163;28;20537;-68
2022/04/07 00:23:54;;;;;;;17.67;3.63;;;;;;;9.58;100.00;99002.44;5014950;28;20033;-67
2022/04/07 00:26:20;;;;;;;10.15;2.50;;;;;;;9.61;100.00;99006.78;5012053;28;20136;-68
2022/04/07 00:28:45;;;;;;;23.48;2.90;;;;;;;9.64;100.00;98979.63;5011656;28;20105;-67
2022/04/07 00:31:11;;;;;;;19.52;3.60;;;;;;;9.72;100.00;98988.31;5015417;28;20109;-67
2022/04/07 00:33:37;;;;;;;19.20;2.92;;;;;;;9.75;100.00;98973.41;4996219;28;20029;-67
2022/04/07 00:36:04;;;;;;;17.15;3.03;;;;;;;9.77;100.00;98960.25;5012958;28;20040;-68
2022/04/07 00:38:30;;;;;;;27.65;3.92;;;;;;;9.77;100.00;98966.34;5013738;28;20076;-67
2022/04/07 00:40:55;;;;;;;21.00;2.83;;;;;;;9.73;100.00;98964.66;5012019;28;20038;-67
2022/04/07 00:43:31;;;;;;;18.15;3.00;;;;;;;9.70;100.00;98954.19;5013964;28;20029;-67
2022/04/07 00:45:57;;;;;;;16.83;2.67;;;;;;;9.72;100.00;98951.53;5014833;28;20033;-68
2022/04/07 00:48:23;;;;;;;27.70;4.20;;;;;;;9.73;100.00;98945.41;5014937;28;20037;-68
2022/04/07 00:50:49;;;;;;;23.90;3.47;;;;;;;9.75;100.00;98941.88;5014503;28;20026;-67
2022/04/07 00:53:15;;;;;;;20.42;2.83;;;;;;;9.70;100.00;98930.53;5013292;28;20037;-67
2022/04/07 00:55:42;;;;;;;29.45;4.07;;;;;;;9.69;100.00;98922.69;5012877;28;20038;-68
2022/04/07 00:58:07;;;;;;;18.63;3.15;;;;;;;9.67;100.00;98927.97;5009567;28;20033;-67
2022/04/07 01:00:34;;;;;;;22.30;3.75;;;;;;;9.69;100.00;98915.66;5012002;28;20032;-67
2022/04/07 01:02:59;;;;;;;24.02;3.75;;;;;;;9.74;100.00;98924.38;5012317;28;20037;-67
2022/04/07 01:05:25;;;;;;;16.55;3.15;;;;;;;9.69;100.00;98909.56;5013819;28;20022;-67
2022/04/07 01:07:51;;;;;;;20.10;3.42;;;;;;;9.70;100.00;98908.63;5011756;28;20021;-68
2022/04/07 01:10:19;;;;;;;27.90;3.42;;;;;;;9.68;100.00;98890.28;5013769;28;20033;-67
2022/04/07 01:12:44;;;;;;;17.50;3.13;;;;;;;9.70;100.00;98885.91;5009906;28;20067;-66
2022/04/07 01:15:09;;;;;;;18.35;3.08;;;;;;;9.59;100.00;98886.00;5013454;28;20112;-67
2022/04/07 01:17:35;;;;;;;20.05;2.65;;;;;;;9.34;100.00;98898.53;5013731;28;20440;-67
2022/04/07 01:20:03;;;;;;;22.10;3.42;;;;;;;9.09;100.00;98901.38;5009679;28;20558;-67
2022/04/07 01:22:28;;;;;;;27.17;5.90;;;;;;;8.97;100.00;98893.63;5003977;28;20034;-66
2022/04/07 01:24:54;;;;;;;21.10;4.00;;;;;;;8.83;100.00;98878.00;5013477;28;20536;-67
2022/04/07 01:27:20;;;;;;;29.17;4.07;;;;;;;8.82;100.00;98878.88;4993955;28;20030;-67
2022/04/07 01:29:46;;;;;;;29.40;4.65;;;;;;;8.80;100.00;98861.41;4998802;28;20049;-68
2022/04/07 01:32:19;;;;;;;28.10;4.57;;;;;;;8.77;100.00;98844.81;5010709;28;20083;-68
2022/04/07 01:34:45;;;;;;;18.65;4.22;;;;;;;8.81;100.00;98863.16;5012304;28;20076;-68
2022/04/07 01:37:11;;;;;;;42.45;5.60;;;;;;;8.74;100.00;98834.34;5012908;28;20026;-68
2022/04/07 01:39:39;;;;;;;24.58;5.40;;;;;;;8.80;100.00;98848.31;5013251;28;20432;-69
2022/04/07 01:42:07;;;;;;;29.88;3.83;;;;;;;8.77;100.00;98823.81;5012171;28;20040;-68
2022/04/07 01:44:35;;;;;;;40.63;5.68;;;;;;;8.78;100.00;98816.84;5010304;28;20505;-68
2022/04/07 01:47:00;;;;;;;31.13;4.22;;;;;;;8.72;100.00;98802.03;5012928;28;20041;-68
2022/04/07 01:49:26;;;;;;;32.38;5.50;;;;;;;8.70;100.00;98806.41;5009737;28;20022;-68
2022/04/07 01:51:52;;;;;;;27.63;4.13;;;;;;;8.67;100.00;98790.72;5009919;28;20034;-68
2022/04/07 01:54:18;;;;;;;37.50;5.55;;;;;;;8.62;100.00;98792.50;5013143;28;20034;-67
2022/04/07 01:56:45;;;;;;;29.38;4.10;;;;;;;8.62;100.00;98792.50;5010879;28;20112;-68
2022/04/07 01:59:11;;;;;;;35.53;4.95;;;;;;;8.62;100.00;98797.75;5010983;28;20030;-68
2022/04/07 02:01:36;;;;;;;35.78;4.63;;;;;;;8.69;100.00;98782.84;5012808;28;20540;-68
2022/04/07 02:04:02;;;;;;;46.50;6.55;;;;;;;8.74;100.00;98786.28;5012636;28;20481;-68
2022/04/07 02:06:27;;;;;;;35.72;4.72;;;;;;;8.75;100.00;98798.53;5013187;28;20029;-68
2022/04/07 02:08:53;;;;;;;34.67;5.10;;;;;;;8.76;100.00;98788.03;5011398;28;20513;-67
2022/04/07 02:11:19;;;;;;;30.95;4.65;;;;;;;8.86;100.00;98787.94;5008172;28;20037;-68
2022/04/07 02:13:44;;;;;;;40.58;5.47;;;;;;;8.94;100.00;98786.09;5011656;28;20055;-68
2022/04/07 02:16:11;;;;;;;36.30;4.93;;;;;;;8.99;100.00;98793.91;5013149;28;20049;-68
2022/04/07 02:18:38;;;;;;;33.55;5.10;;;;;;;9.11;100.00;98789.44;5011325;28;20025;-67
2022/04/07 02:21:04;;;;;;;28.83;4.88;;;;;;;9.17;100.00;98756.09;5012829;28;20042;-67
2022/04/07 02:23:29;;;;;;;28.33;4.43;;;;;;;9.21;100.00;98760.44;5012913;28;20034;-68
2022/04/07 02:25:55;;;;;;;34.88;7.00;;;;;;;9.22;100.00;98767.44;5011098;28;20033;-67
2022/04/07 02:28:20;;;;;;;26.50;4.25;;;;;;;9.24;100.00;98749.94;5010828;28;20053;-67
2022/04/07 02:30:47;;;;;;;38.42;5.90;;;;;;;9.26;100.00;98737.63;5010650;28;20026;-67
2022/04/07 02:33:12;;;;;;;35.90;4.65;;;;;;;9.29;100.00;98742.84;5011924;28;20061;-67
2022/04/07 02:35:38;;;;;;;23.58;5.30;;;;;;;9.37;100.00;98755.88;5012199;28;20033;-67
2022/04/07 02:38:04;;;;;;;31.23;4.30;;;;;;;9.38;100.00;98726.97;5011379;28;20022;-69
2022/04/07 02:40:29;;;;;;;27.15;4.10;;;;;;;9.39;100.00;98733.13;5010435;28;20034;-67
2022/04/07 02:42:54;;;;;;;36.17;4.55;;;;;;;9.34;100.00;98720.03;5012099;28;20017;-67
2022/04/07 02:45:20;;;;;;;35.72;4.75;;;;;;;9.37;100.00;98711.25;5010187;28;20029;-67
2022/04/07 02:47:45;;;;;;;30.17;4.70;;;;;;;9.33;100.00;98706.94;5012565;28;20034;-67
2022/04/07 02:50:10;;;;;;;36.10;5.07;;;;;;;9.28;100.00;98705.25;5011458;28;20649;-67
2022/04/07 02:52:36;;;;;;;32.65;5.07;;;;;;;9.24;100.00;98698.28;5012386;28;20030;-67
2022/04/07 02:55:03;;;;;;;37.97;5.38;;;;;;;9.24;100.00;98707.94;5012868;28;20034;-68
2022/04/07 02:57:31;;;;;;;29.70;4.38;;;;;;;9.19;100.00;98701.88;5009619;28;20531;-67
2022/04/07 02:59:58;;;;;;;37.42;5.10;;;;;;;9.22;100.00;98688.72;5010656;28;20033;-67
2022/04/07 03:02:24;;;;;;;29.40;4.35;;;;;;;9.28;100.00;98688.63;5005052;28;20072;-68
2022/04/07 03:04:49;;;;;;;31.80;4.85;;;;;;;9.30;100.00;98665.84;5007702;28;20057;-67
2022/04/07 03:07:15;;;;;;;30.13;4.75;;;;;;;9.33;100.00;98660.56;5012263;28;20068;-68
2022/04/07 03:09:40;;;;;;;30.10;4.53;;;;;;;9.37;100.00;98659.66;5012369;28;20433;-68
2022/04/07 03:12:06;;;;;;;27.13;5.47;;;;;;;9.35;100.00;98642.19;5012117;28;20034;-67
2022/04/07 03:14:31;;;;;;;34.25;5.38;;;;;;;9.35;100.00;98648.28;5010972;28;20029;-67
2022/04/07 03:16:58;;;;;;;29.85;4.55;;;;;;;9.32;100.00;98640.47;5012473;28;20084;-68
2022/04/07 03:19:24;;;;;;;27.45;3.88;;;;;;;9.34;100.00;98646.53;5010026;28;20088;-68
2022/04/07 03:21:49;;;;;;;43.60;5.78;;;;;;;9.32;100.00;98631.72;5012009;28;20034;-67
2022/04/07 03:24:14;;;;;;;27.67;4.70;;;;;;;9.31;100.00;98622.13;5012423;28;20026;-67
2022/04/07 03:26:40;;;;;;;27.98;4.10;;;;;;;9.25;100.00;98615.19;5008016;28;20446;-67
2022/04/07 03:29:05;;;;;;;24.15;4.55;;;;;;;9.25;100.00;98620.44;5008536;28;20022;-68
2022/04/07 03:31:31;;;;;;;29.85;3.70;;;;;;;9.21;100.00;98613.47;5011292;28;20030;-67
2022/04/07 03:33:56;;;;;;;32.40;4.80;;;;;;;9.14;100.00;98586.47;5012373;28;20520;-68
2022/04/07 03:36:21;;;;;;;29.80;4.90;;;;;;;8.93;100.00;98582.41;5011183;28;20080;-67
2022/04/07 03:38:48;;;;;;;30.98;4.97;;;;;;;8.83;100.00;98591.25;5014271;28;20116;-69
2022/04/07 03:41:15;;;;;;;34.22;4.00;;;;;;;8.74;100.00;98560.78;5015712;28;20021;-68
2022/04/07 03:43:42;;;;;;;40.15;5.03;;;;;;;8.68;100.00;98560.84;5013821;28;20029;-68
2022/04/07 03:46:08;;;;;;;27.40;3.83;;;;;;;8.70;100.00;98554.72;5005764;28;20049;-68
2022/04/07 03:48:33;;;;;;;24.75;3.65;;;;;;;8.72;100.00;98524.13;5014707;28;20037;-68
2022/04/07 03:50:59;;;;;;;23.30;3.40;;;;;;;8.75;100.00;98513.56;5015057;28;20362;-68
2022/04/07 03:53:24;;;;;;;24.88;4.40;;;;;;;8.75;100.00;98520.59;5013503;28;20503;-68
2022/04/07 03:55:49;;;;;;;34.63;4.90;;;;;;;8.74;100.00;98497.88;5014561;28;20034;-68
2022/04/07 03:58:15;;;;;;;31.23;3.80;;;;;;;8.77;100.00;98488.19;5013927;28;20034;-68
2022/04/07 04:00:40;;;;;;;24.20;3.55;;;;;;;8.83;100.00;98473.25;5012369;28;20014;-68
2022/04/07 04:03:06;;;;;;;25.42;3.78;;;;;;;8.85;100.00;98502.97;5013588;28;20452;-68
2022/04/07 04:05:31;;;;;;;19.20;3.83;;;;;;;8.86;100.00;98457.50;5012635;28;20465;-68
2022/04/07 04:07:57;;;;;;;21.20;3.13;;;;;;;8.82;100.00;98468.88;5013734;28;20022;-68
2022/04/07 04:10:23;;;;;;;21.92;3.05;;;;;;;8.75;100.00;98444.53;5015577;28;20101;-68
2022/04/07 04:12:48;;;;;;;18.60;2.80;;;;;;;8.69;100.00;98445.47;5015368;28;20022;-68
2022/04/07 04:15:14;;;;;;;18.10;3.58;;;;;;;8.66;100.00;98448.16;5015087;28;20030;-68
2022/04/07 04:17:39;;;;;;;24.20;4.22;;;;;;;8.58;100.00;98429.03;5013767;28;20501;-67
2022/04/07 04:20:05;;;;;;;23.42;4.15;;;;;;;8.55;100.00;98419.47;5012119;28;20049;-68
2022/04/07 04:22:30;;;;;;;17.02;2.80;;;;;;;8.48;100.00;98411.72;5015401;28;20108;-68
2022/04/07 04:24:55;;;;;;;13.18;2.72;;;;;;;8.49;100.00;98411.72;5014439;28;20401;-68
2022/04/07 04:27:21;;;;;;;17.50;2.53;;;;;;;8.47;100.00;98410.00;5005257;28;20457;-67
2022/04/07 04:29:46;;;;;;;31.10;3.25;;;;;;;8.46;100.00;98379.44;5012906;28;20121;-67
2022/04/07 04:32:12;;;;;;;16.55;2.72;;;;;;;8.41;100.00;98375.09;5014723;28;20437;-67
2022/04/07 04:34:37;;;;;;;21.75;4.07;;;;;;;8.42;100.00;98382.06;5012854;28;20065;-68
2022/04/07 04:37:03;;;;;;;22.65;3.20;;;;;;;8.42;100.00;98376.81;5013911;28;20037;-67
2022/04/07 04:39:28;;;;;;;17.65;2.65;;;;;;;8.39;100.00;98382.09;5013322;28;20076;-68
2022/04/07 04:41:53;;;;;;;13.38;2.30;;;;;;;8.37;100.00;98352.44;5015293;28;20079;-67
2022/04/07 04:44:19;;;;;;;19.58;3.10;;;;;;;8.40;100.00;98356.78;5012405;28;20022;-68
2022/04/07 04:46:44;;;;;;;22.35;2.45;;;;;;;8.37;100.00;98367.28;5014884;28;20109;-68
2022/04/07 04:49:09;;;;;;;11.85;2.45;;;;;;;8.36;100.00;98340.22;5012857;28;20034;-69
2022/04/07 04:51:35;;;;;;;12.68;2.28;;;;;;;8.39;100.00;98334.06;5014409;28;20473;-68
2022/04/07 04:54:00;;;;;;;16.58;2.38;;;;;;;8.35;100.00;98335.84;5013896;28;20076;-69
2022/04/07 04:56:27;;;;;;;17.90;2.92;;;;;;;8.35;100.00;98328.00;5014295;28;20065;-68
2022/04/07 04:58:57;;;;;;;18.75;2.50;;;;;;;8.34;100.00;98313.19;4989360;28;20121;-68
2022/04/07 05:01:22;;;;;;;19.73;2.95;;;;;;;8.31;100.00;98289.63;5011821;28;20042;-68
2022/04/07 05:03:48;;;;;;;10.60;2.00;;;;;;;8.29;100.00;98325.50;5014032;28;20038;-69
2022/04/07 05:06:13;;;;;;;11.73;2.05;;;;;;;8.24;100.00;98294.09;5012918;28;20057;-68
2022/04/07 05:08:38;;;;;;;14.43;3.17;;;;;;;8.20;100.00;98307.28;5014444;28;20049;-68
2022/04/07 05:11:04;;;;;;;14.55;2.40;;;;;;;8.16;100.00;98308.22;5013099;28;20026;-68
2022/04/07 05:13:29;;;;;;;18.23;3.63;;;;;;;8.15;100.00;98316.97;5014380;28;20099;-68
2022/04/07 05:15:54;;;;;;;16.08;2.95;;;;;;;8.12;100.00;98351.06;5014176;28;20018;-68
2022/04/07 05:18:19;;;;;;;9.48;2.83;;;;;;;8.14;100.00;98404.28;5012961;28;20055;-67
2022/04/07 05:20:45;;;;;;;5.25;1.20;;;;;;;7.45;100.00;98458.28;5011598;28;20050;-68
2022/04/07 05:23:10;;;;;;;5.18;0.82;;;;;;;6.00;100.00;98453.13;5012225;28;20022;-68
2022/04/07 05:25:35;;;;;;;4.40;0.88;;;;;;;4.93;100.00;98447.16;5012863;28;20018;-67
2022/04/07 05:28:01;;;;;;;6.43;0.95;;;;;;;4.66;100.00;98433.25;5012063;28;20107;-67
2022/04/07 05:30:26;;;;;;;9.60;1.63;;;;;;;4.62;100.00;98449.72;5009920;28;20025;-68
2022/04/07 05:32:51;;;;;;;8.93;1.30;;;;;;;4.64;100.00;98463.66;5010526;28;20180;-67
2022/04/07 05:35:17;;;;;;;10.27;2.35;;;;;;;4.65;100.00;98449.75;5008651;28;20025;-68
2022/04/07 05:37:42;;;;;;;12.63;1.67;;;;;;;4.69;100.00;98450.63;5009962;28;20462;-68
2022/04/07 05:40:12;;;;;;;10.40;1.80;;;;;;;4.70;100.00;98448.00;5012005;28;20061;-67
2022/04/07 05:42:38;;;;;;;15.73;1.73;;;;;;;4.74;100.00;98467.13;5007985;28;20033;-67
2022/04/07 05:45:04;;;;;;;13.88;1.55;;;;;;;4.73;100.00;98444.53;5013397;28;20481;-68
2022/04/07 05:47:30;;;;;;;15.50;1.92;;;;;;;4.76;100.00;98448.88;5009697;28;20026;-67
2022/04/07 05:49:56;;;;;;;11.85;2.28;;;;;;;4.79;100.00;98448.88;5009730;28;20014;-67
2022/04/07 05:52:21;;;;;;;16.42;2.40;;;;;;;4.85;100.00;98448.91;5012267;28;20026;-68
2022/04/07 05:54:47;;;;;;;13.95;1.70;;;;;;;4.92;100.00;98435.00;5012244;28;20388;-70
2022/04/07 05:57:12;;;;;;;17.95;2.22;;;;;;;5.01;100.00;98439.38;5012476;28;20034;-70
2022/04/07 05:59:37;;;;;;;15.07;1.80;;;;;;;5.09;100.00;98426.31;5013793;28;20512;-70
2022/04/07 06:02:03;;;;;;;21.75;2.28;;;;;;;5.16;100.00;98428.06;5007385;28;20065;-70
2022/04/07 06:04:29;;;;;;;14.82;1.95;;;;;;;5.21;100.00;98428.94;5012240;28;20087;-70
2022/04/07 06:06:54;;;;;;;18.52;2.13;;;;;;;5.28;100.00;98435.88;5013333;28;20160;-70
2022/04/07 06:09:19;;;;;;;17.40;2.10;;;;;;;5.33;100.00;98426.31;5012214;28;20020;-69
2022/04/07 06:11:45;;;;;;;10.68;1.75;;;;;;;5.37;100.00;98409.78;5010603;28;20084;-69
2022/04/07 06:14:10;;;;;;;17.17;2.92;;;;;;;5.38;100.00;98402.81;5011172;28;20470;-71
2022/04/07 06:16:35;;;;;;;10.93;1.58;;;;;;;5.43;100.00;98400.22;4997163;28;20060;-70
2022/04/07 06:19:00;;;;;;;15.65;2.47;;;;;;;5.41;100.00;98381.94;5012228;28;20113;-70
2022/04/07 06:21:29;;;;;;;14.52;1.98;;;;;;;5.38;100.00;98382.81;5012021;28;20033;-71
2022/04/07 06:23:55;;;;;;;22.77;2.17;;;;;;;5.36;100.00;98348.06;5011111;28;20053;-77
2022/04/07 06:26:20;;;;;;;6.80;1.25;;;;;;;5.35;100.00;98354.13;5006074;28;20052;-70
2022/04/07 06:28:46;;;;;;;8.60;2.33;;;;;;;5.38;100.00;98361.09;5011078;28;20049;-70
2022/04/07 06:31:11;;;;;;;12.10;1.50;;;;;;;5.38;100.00;98355.88;5009996;28;20465;-70
2022/04/07 06:33:36;;;;;;;7.90;1.17;;;;;;;5.40;100.00;98367.19;5008963;28;20112;-70
2022/04/07 06:36:03;;;;;;;17.20;1.73;;;;;;;5.43;100.00;98361.09;5011306;28;20437;-69
2022/04/07 06:38:30;;;;;;;11.13;1.55;;;;;;;5.44;100.00;98352.38;5012202;28;20025;-70
2022/04/07 06:40:56;;;;;;;11.50;1.75;;;;;;;5.45;100.00;98335.88;5013418;28;20418;-70
2022/04/07 06:43:22;;;;;;;17.52;2.45;;;;;;;5.50;100.00;98334.13;5012079;28;20111;-70
2022/04/07 06:45:47;;;;;;;11.70;1.50;;;;;;;5.46;100.00;98332.38;5012932;28;20489;-70
2022/04/07 06:48:13;;;;;;;13.35;1.60;;;;;;;5.45;100.00;98341.06;5013093;28;20104;-70
2022/04/07 06:50:38;;;;;;;10.27;1.40;;;;;;;5.49;100.00;98333.22;5012252;28;20026;-70
2022/04/07 06:53:03;;;;;;;9.60;1.40;;;;;;;5.46;100.00;98319.34;5015923;28;20096;-70
2022/04/07 06:55:29;;;;;;;11.38;2.05;;;;;;;5.43;100.00;98295.91;4994260;28;20084;-75
2022/04/07 06:58:00;;;;;;;11.38;1.45;;;;;;;5.42;100.00;98296.75;5011749;28;20041;-70
2022/04/07 07:00:30;;;;;;;8.98;1.23;;;;;;;5.42;100.00;98302.84;5012790;28;20076;-69
2022/04/07 07:02:58;;;;;;;18.95;2.13;;;;;;;5.44;100.00;98284.56;5009878;28;20037;-69
2022/04/07 07:05:26;;;;;;;3.00;1.08;;;;;;;5.49;100.00;98290.63;5011483;28;20485;-70
2022/04/07 07:07:52;;;;;;;5.68;1.20;;;;;;;5.48;100.00;98288.91;5010709;28;20501;-70
2022/04/07 07:10:30;;;;;;;10.80;1.40;;;;;;;5.49;100.00;98267.16;5012545;28;20521;-70
2022/04/07 07:12:59;;;;;;;12.30;0.98;;;;;;;5.53;100.00;98255.84;5013169;28;20026;-70
2022/04/07 07:15:25;;;;;;;15.20;1.52;;;;;;;5.57;100.00;98249.72;5016186;28;20466;-69
2022/04/07 07:17:51;;;;;;;13.38;2.13;;;;;;;5.58;100.00;98239.28;5016393;28;20038;-69
2022/04/07 07:20:18;;;;;;;5.93;1.05;;;;;;;5.62;100.00;98214.06;5016275;28;20042;-70
2022/04/07 07:22:44;;;;;;;11.40;1.80;;;;;;;5.69;100.00;98220.97;5016637;28;20534;-69
2022/04/07 07:25:10;;;;;;;9.15;1.48;;;;;;;5.80;100.00;98225.25;5016752;28;20120;-70
2022/04/07 07:27:40;;;;;;;17.20;2.65;;;;;;;5.85;100.00;98213.06;5016374;28;20057;-70
2022/04/07 07:30:10;;;;;;;10.80;1.40;;;;;;;5.97;100.00;98210.34;5016078;28;20026;-70
2022/04/07 07:32:36;;;;;;;9.27;1.23;;;;;;;6.06;100.00;98201.59;5016121;28;20026;-69
2022/04/07 07:35:03;;;;;;;8.75;1.20;;;;;;;6.13;100.00;98197.19;5016083;28;20121;-70
2022/04/07 07:37:28;;;;;;;10.55;1.60;;;;;;;6.22;100.00;98204.97;5015250;28;20041;-70
2022/04/07 07:39:53;;;;;;;8.80;1.75;;;;;;;6.31;100.00;98202.28;5014771;28;20394;-69
2022/04/07 07:42:19;;;;;;;11.65;1.73;;;;;;;6.33;100.00;98197.03;5015764;28;20361;-69
2022/04/07 07:44:44;;;;;;;11.48;1.52;;;;;;;6.39;100.00;98205.69;5014487;28;20022;-69
2022/04/07 07:47:09;;;;;;;13.40;2.40;;;;;;;6.47;100.00;98200.38;5015757;28;20057;-67
2022/04/07 07:49:35;;;;;;;6.22;1.50;;;;;;;6.58;100.00;98202.91;5016693;28;20108;-68
2022/04/07 07:52:01;;;;;;;18.27;2.03;;;;;;;6.63;100.00;98206.31;5005133;28;20026;-68
2022/04/07 07:54:26;;;;;;;4.80;1.30;;;;;;;6.73;100.00;98213.19;5015792;28;20022;-68
2022/04/07 07:56:51;;;;;;;15.48;1.33;;;;;;;6.85;100.00;98209.56;5014492;28;20405;-68
2022/04/07 07:59:20;;;;;;;14.93;1.38;;;;;;;6.95;100.00;98202.50;5015679;28;20030;-68
2022/04/07 08:01:45;;;;;;;8.73;1.45;;;;;;;7.05;100.00;98198.91;5015489;28;20053;-67
2022/04/07 08:04:12;;;;;;;15.65;1.65;;;;;;;7.16;100.00;98198.75;5015005;28;20084;-68
2022/04/07 08:06:38;;;;;;;9.32;1.40;;;;;;;7.30;100.00;98200.31;5006539;28;20018;-67
2022/04/07 08:09:04;;;;;;;7.07;1.75;;;;;;;7.41;100.00;98203.66;5014674;28;20126;-68
2022/04/07 08:11:29;;;;;;;14.68;1.30;;;;;;;7.53;100.00;98200.88;5015452;28;20030;-68
2022/04/07 08:13:54;;;;;;;12.30;1.95;;;;;;;7.65;100.00;98194.63;5015241;28;20014;-68
2022/04/07 08:16:20;;;;;;;9.27;1.50;;;;;;;7.82;100.00;98196.13;5015529;28;20440;-68
2022/04/07 08:18:46;;;;;;;9.32;2.25;;;;;;;8.02;100.00;98194.03;5015272;28;20105;-68
2022/04/07 08:21:11;;;;;;;18.05;1.90;;;;;;;8.18;100.00;98204.25;5014197;28;20058;-68
2022/04/07 08:23:37;;;;;;;9.88;1.63;;;;;;;8.33;100.00;98198.78;5014228;28;20041;-69
2022/04/07 08:26:02;;;;;;;9.65;1.42;;;;;;;8.39;100.00;98198.66;5015416;28;20045;-68
2022/04/07 08:28:27;;;;;;;18.25;1.75;;;;;;;8.42;100.00;98196.00;4999620;28;20104;-68
2022/04/07 08:30:53;;;;;;;8.48;1.30;;;;;;;8.44;100.00;98206.47;5014850;28;20018;-69
2022/04/07 08:33:18;;;;;;;19.02;2.30;;;;;;;8.50;100.00;98195.03;5014382;28;20064;-68
2022/04/07 08:35:43;;;;;;;22.35;2.13;;;;;;;8.53;100.00;98200.22;5015364;28;20026;-67
2022/04/07 08:38:14;;;;;;;9.98;2.03;;;;;;;8.50;100.00;98226.50;5014185;28;20037;-69
2022/04/07 08:40:41;;;;;;;8.30;1.67;;;;;;;8.62;100.00;98183.47;5014354;28;20060;-68
2022/04/07 08:43:08;;;;;;;11.02;1.88;;;;;;;8.65;100.00;98194.75;4997268;28;20368;-68
2022/04/07 08:45:35;;;;;;;11.55;2.08;;;;;;;8.75;100.00;98196.31;5014235;28;20018;-68
2022/04/07 08:48:02;;;;;;;13.02;1.90;;;;;;;8.77;100.00;98204.16;4980661;28;20470;-66
2022/04/07 08:50:27;;;;;;;9.85;2.38;;;;;;;8.75;100.00;98196.31;5015092;28;20374;-67
2022/04/07 08:52:53;;;;;;;12.85;1.83;;;;;;;8.73;100.00;98194.63;5015006;28;20030;-67
2022/04/07 08:55:19;;;;;;;10.50;1.77;;;;;;;8.76;100.00;98219.03;5014454;28;20030;-68
2022/04/07 08:57:44;;;;;;;12.13;2.03;;;;;;;8.81;100.00;98194.47;5014145;28;20471;-70
2022/04/07 09:00:10;;;;;;;9.25;1.63;;;;;;;8.96;100.00;98227.41;5015075;28;20394;-72
2022/04/07 09:02:35;;;;;;;14.73;2.30;;;;;;;9.11;98.13;98208.72;4983699;28;20033;-73
2022/04/07 09:05:01;;;;;;;21.90;2.28;;;;;;;9.20;97.88;98212.94;4996600;28;20033;-70
2022/04/07 09:07:33;;;;;;;11.65;1.65;;;;;;;9.22;97.29;98211.13;5014654;28;20021;-71
2022/04/07 09:10:01;;;;;;;13.35;2.17;;;;;;;9.28;96.99;98229.41;5006550;28;20105;-72
2022/04/07 09:12:27;;;;;;;16.08;2.05;;;;;;;9.30;96.74;98209.22;5014034;28;20554;-69
2022/04/07 09:14:57;;;;;;;8.10;1.40;;;;;;;9.25;95.25;98227.69;5014558;28;20105;-72
2022/04/07 09:17:23;;;;;;;14.00;2.10;;;;;;;9.26;96.17;98223.31;5014174;28;20091;-71
2022/04/07 09:19:54;;;;;;;10.10;2.13;;;;;;;9.37;94.26;98226.59;5012014;28;20046;-68
2022/04/07 09:22:30;;;;;;;9.70;2.45;;;;;;;9.35;95.23;98244.13;5014100;28;20030;-68
2022/04/07 09:24:55;;;;;;;11.68;1.65;;;;;;;9.34;95.59;98229.25;5014085;28;20049;-68
2022/04/07 09:27:21;;;;;;;13.82;2.33;;;;;;;9.40;96.13;98237.00;5012554;28;20034;-67
2022/04/07 09:29:47;;;;;;;11.20;1.60;;;;;;;9.42;94.05;98223.84;5014196;28;20080;-67
2022/04/07 09:32:20;;;;;;;15.85;1.98;;;;;;;9.40;94.61;98226.50;5012775;28;20508;-68
2022/04/07 09:34:53;;;;;;;12.68;1.75;;;;;;;9.39;93.22;98268.53;5013390;28;20034;-68
2022/04/07 09:37:21;;;;;;;9.68;1.70;;;;;;;9.32;92.53;98249.44;5014119;28;20036;-71
2022/04/07 09:39:46;;;;;;;12.98;2.15;;;;;;;9.25;93.58;98258.31;4995211;28;20354;-71
2022/04/07 09:42:25;;;;;;;12.82;1.58;;;;;;;9.21;92.43;98270.63;5012238;28;20125;-71
2022/04/07 09:44:57;;;;;;;12.63;1.90;;;;;;;9.18;93.79;98269.81;5012026;28;20030;-71
2022/04/07 09:47:24;;;;;;;10.70;1.70;;;;;;;9.17;94.34;98260.22;4998046;28;20092;-70
2022/04/07 09:49:49;;;;;;;17.27;2.55;;;;;;;9.18;95.52;98267.19;5011008;28;20026;-70
2022/04/07 09:52:21;;;;;;;12.73;2.25;;;;;;;9.20;96.84;98292.50;5013396;28;20032;-71
2022/04/07 09:54:54;;;;;;;17.95;2.70;;;;;;;9.20;96.04;98281.16;5012674;28;20044;-71
2022/04/07 09:57:22;;;;;;;16.23;2.83;;;;;;;9.21;96.16;98277.63;5024491;28;20496;-71
2022/04/07 09:59:49;;;;;;;11.10;3.00;;;;;;;9.18;96.40;98275.06;4995019;28;20060;-71
2022/04/07 10:02:17;;;;;;;14.85;2.63;;;;;;;9.17;93.23;98270.72;4996027;28;20037;-71
2022/04/07 10:04:42;;;;;;;12.45;2.35;;;;;;;9.18;92.62;98285.56;5016829;28;20029;-71
2022/04/07 10:07:11;;;;;;;18.90;2.65;;;;;;;9.25;93.60;98290.69;5014706;28;20044;-71
2022/04/07 10:09:39;;;;;;;17.38;3.00;;;;;;;9.24;92.31;98280.22;5014062;28;20057;-72
2022/04/07 10:12:05;;;;;;;15.65;2.88;;;;;;;9.19;92.50;98290.78;5017364;28;20032;-71
2022/04/07 10:14:34;;;;;;;19.50;2.58;;;;;;;9.15;92.93;98296.13;5012151;28;20033;-71
2022/04/07 10:16:59;;;;;;;16.65;2.65;;;;;;;9.08;91.14;98290.13;5012599;28;20101;-72
2022/04/07 10:19:32;;;;;;;15.73;2.55;;;;;;;9.05;91.57;98288.41;5013297;28;20479;-71
2022/04/07 10:22:24;;;;;;;17.75;2.50;;;;;;;9.09;92.35;98284.00;5011760;28;20421;-72
2022/04/07 10:24:55;;;;;;;15.23;2.60;;;;;;;9.19;90.73;98293.41;4961510;28;20046;-71
2022/04/07 10:27:24;;;;;;;14.45;2.30;;;;;;;9.21;91.21;98294.25;5002206;28;20474;-71
2022/04/07 10:30:11;;;;;;;23.73;2.95;;;;;;;9.31;89.87;98294.09;5011594;28;20025;-72
2022/04/07 10:32:38;;;;;;;19.70;3.00;;;;;;;9.35;90.45;98286.09;4995180;28;20436;-71
2022/04/07 10:35:04;;;;;;;14.82;2.60;;;;;;;9.50;89.69;98290.19;5010462;28;20033;-72
2022/04/07 10:37:42;;;;;;;19.38;2.80;;;;;;;9.76;88.05;98297.50;5011710;28;20037;-72
2022/04/07 10:40:35;;;;;;;16.10;2.38;;;;;;;9.86;86.81;98287.69;5015587;28;20025;-72
2022/04/07 10:43:03;;;;;;;20.98;2.83;;;;;;;10.06;87.51;98286.38;4994767;28;20064;-72
2022/04/07 10:45:35;;;;;;;10.65;3.25;;;;;;;10.07;85.03;98296.84;5012698;28;20029;-71
2022/04/07 10:48:17;;;;;;;17.60;2.83;;;;;;;10.18;84.80;98303.63;5011806;28;20132;-71
2022/04/07 10:50:54;;;;;;;22.17;3.80;;;;;;;10.49;84.90;98308.19;5003124;28;20041;-71
2022/04/07 10:53:28;;;;;;;18.10;2.78;;;;;;;10.45;83.57;98313.50;5008635;28;20053;-71
2022/04/07 10:56:01;;;;;;;27.20;3.05;;;;;;;10.72;85.85;98332.16;5008708;28;20108;-71
2022/04/07 10:58:55;;;;;;;15.67;3.10;;;;;;;11.03;83.35;98335.78;5010123;28;20022;-71
2022/04/07 11:01:26;;;;;;;19.10;2.90;;;;;;;10.95;81.81;98317.56;5009876;28;20295;-71
2022/04/07 11:04:16;;;;;;;20.50;2.97;;;;;;;10.80;81.57;98322.31;5012171;28;20466;-72
2022/04/07 11:07:20;;;;;;;15.50;2.63;;;;;;;10.90;81.27;98324.72;5009466;28;20022;-71
2022/04/07 11:10:11;;;;;;;21.33;3.20;;;;;;;11.07;82.71;98330.41;5009759;28;20096;-71
2022/04/07 11:12:43;;;;;;;20.17;3.75;;;;;;;11.18;79.61;98310.81;5012594;28;20033;-72
2022/04/07 11:15:18;;;;;;;17.98;2.63;;;;;;;10.88;81.59;98331.75;4975543;28;20505;-70
2022/04/07 11:17:46;;;;;;;16.23;3.35;;;;;;;10.97;81.68;98336.81;4999307;28;20034;-71
2022/04/07 11:20:14;;;;;;;21.15;3.05;;;;;;;11.09;81.06;98320.69;5012583;28;20128;-71
2022/04/07 11:22:49;;;;;;;15.25;2.58;;;;;;;11.00;78.87;98346.38;5012490;28;20026;-72
2022/04/07 11:25:22;;;;;;;17.60;3.63;;;;;;;11.07;80.67;98338.31;4993968;28;20530;-71
2022/04/07 11:28:11;;;;;;;18.35;2.90;;;;;;;11.15;80.19;98322.31;5009217;28;20102;-71